White Post, Virginia
Current Conditions -  °F | °C
As of 10:15 PM on Monday 26 Jan 2015 (Local Time) from KOKV Reporting Station
Light Snow Light Snow  
Wind Chill: 23°   Ceiling: 4400
Heat Index: 28°   Visibility: 7mi
Dew Point: 23°   Wind: 5mph
Humidity: 80%   Direction: 350°N
Pressure: 29.78"   Gusts: NA
Location:  39.06°N, 78.1°W
Report Text: KOKV 270315Z AUTO 35004KT 7SM -SN SCT012 OVC044 M02/M05 A2978 RMK AO2
Loading
Personal Weather Stations






























Interactive Weather Map New forecast layout! Learn more

10-Day Weather Forecast

Advertisements
Track Severe Weather on mobile